Time;durP1;ratioP1;P1;durP2;ratioP2;P2;SDS_P1;SDS_P2;PMS_P1;PMS_P2;Temp;Humidity;BMP_temperature;BMP_pressure;BME280_temperature;BME280_humidity;BME280_pressure;Samples;Min_cycle;Max_cycle;Signal;HPM_P1;HPM_P2
2023/06/24 00:02:11;;;;;;;;;;;;;;;22.63;55.13;101373.84;4849988;29;6801;-74
2023/06/24 00:04:37;;;;;;;;;;;;;;;22.60;55.15;101377.28;4848791;29;6960;-74
2023/06/24 00:07:03;;;;;;;;;;;;;;;22.57;55.28;101374.66;4838489;29;7036;-75
2023/06/24 00:09:29;;;;;;;;;;;;;;;22.54;55.22;101367.66;4853834;29;6781;-74
2023/06/24 00:11:58;;;;;;;;;;;;;;;22.53;54.85;101365.88;4866938;29;7366;-74
2023/06/24 00:14:28;;;;;;;;;;;;;;;22.51;55.25;101365.00;4866344;29;6992;-76
2023/06/24 00:16:56;;;;;;;;;;;;;;;22.48;55.71;101363.19;4860291;29;6796;-75
2023/06/24 00:19:26;;;;;;;;;;;;;;;;;;4862982;29;6792;-76
2023/06/24 00:21:53;;;;;;;;;;;;;;;22.43;55.37;101370.06;4854242;29;6784;-76
2023/06/24 00:24:21;;;;;;;;;;;;;;;22.40;55.43;101371.75;4864503;29;7185;-75
2023/06/24 00:26:47;;;;;;;;;;;;;;;22.33;55.25;101363.84;4866942;29;6793;-74
2023/06/24 00:29:13;;;;;;;;;;;;;;;22.30;55.89;101369.00;4853048;29;6769;-74
2023/06/24 00:31:39;;;;;;;;;;;;;;;22.28;55.82;101372.47;4866822;29;7285;-75
2023/06/24 00:34:05;;;;;;;;;;;;;;;22.24;55.94;101368.94;4854396;29;7126;-74
2023/06/24 00:36:35;;;;;;;;;;;;;;;22.21;56.00;101363.63;4850656;29;6781;-76
2023/06/24 00:39:04;;;;;;;;;;;;;;;22.20;55.96;101374.94;4851934;29;6872;-75
2023/06/24 00:41:34;;;;;;;;;;;;;;;22.18;56.10;101368.81;4834377;29;7205;-75
2023/06/24 00:44:01;;;;;;;;;;;;;;;22.19;55.96;101370.56;4851300;29;6817;-74
2023/06/24 00:46:28;;;;;;;;;;;;;;;22.17;55.97;101372.28;4848075;29;7225;-76
2023/06/24 00:48:58;;;;;;;;;;;;;;;22.16;56.03;101373.16;4853934;29;6928;-75
2023/06/24 00:51:30;;;;;;;;;;;;;;;22.13;56.09;101375.72;4850273;29;8805;-74
2023/06/24 00:53:56;;;;;;;;;;;;;;;22.10;56.39;101380.88;4859894;29;6816;-75
2023/06/24 00:56:29;;;;;;;;;;;;;;;22.06;55.84;101369.50;4867847;29;6797;-75
2023/06/24 00:59:01;;;;;;;;;;;;;;;22.03;55.94;101372.06;4867601;29;6804;-74
2023/06/24 01:01:33;;;;;;;;;;;;;;;22.01;56.45;101379.88;4851317;29;7497;-74
2023/06/24 01:04:00;;;;;;;;;;;;;;;22.01;56.18;101373.78;4865724;29;6834;-76
2023/06/24 01:06:28;;;;;;;;;;;;;;;22.02;56.45;101372.94;4863477;29;6855;-74
2023/06/24 01:08:59;;;;;;;;;;;;;;;22.03;56.61;101379.91;4847222;29;6796;-75
2023/06/24 01:11:27;;;;;;;;;;;;;;;22.03;56.26;101375.56;4848086;29;6800;-76
2023/06/24 01:13:53;;;;;;;;;;;;;;;22.04;56.27;101379.94;4847674;29;7197;-75
2023/06/24 01:16:30;;;;;;;;;;;;;;;22.04;56.45;101374.72;4854752;29;7312;-74
2023/06/24 01:19:16;;;;;;;;;;;;;;;22.04;55.95;101369.50;4855638;29;6769;-76
2023/06/24 01:22:21;;;;;;;;;;;;;;;22.00;55.95;101370.28;4839308;29;6989;-74
2023/06/24 01:25:35;;;;;;;;;;;;;;;21.97;56.27;101372.84;4848740;29;7036;-76
2023/06/24 01:28:48;;;;;;;;;;;;;;;21.94;56.12;101375.44;4851769;29;6812;-76
2023/06/24 01:32:11;;;;;;;;;;;;;;;21.89;56.75;101374.47;4851958;29;6837;-74
2023/06/24 01:34:50;;;;;;;;;;;;;;;21.86;56.66;101372.66;4849994;29;6804;-71
2023/06/24 01:37:41;;;;;;;;;;;;;;;21.87;56.54;101378.78;4838159;29;7003;-72
2023/06/24 01:40:28;;;;;;;;;;;;;;;21.84;56.35;101368.31;4853523;29;7228;-71
2023/06/24 01:42:58;;;;;;;;;;;;;;;21.80;56.46;101375.19;4854406;29;7859;-71
2023/06/24 01:45:36;;;;;;;;;;;;;;;21.77;56.28;101373.41;4848107;29;7203;-71
2023/06/24 01:48:15;;;;;;;;;;;;;;;21.74;56.61;101365.53;4855403;29;6796;-73
2023/06/24 01:51:00;;;;;;;;;;;;;;;21.71;56.53;101368.06;4847262;29;7004;-71
2023/06/24 01:53:32;;;;;;;;;;;;;;;21.67;56.79;101365.34;4839715;29;6993;-72
2023/06/24 01:56:01;;;;;;;;;;;;;;;21.63;56.66;101367.03;4849663;29;6801;-70
2023/06/24 01:58:31;;;;;;;;;;;;;;;21.60;56.76;101367.88;4852497;29;6824;-72
2023/06/24 02:00:59;;;;;;;;;;;;;;;21.59;56.72;101365.22;4833193;29;6805;-73
2023/06/24 02:03:28;;;;;;;;;;;;;;;21.57;56.91;101369.53;4850359;29;7011;-72
2023/06/24 02:05:56;;;;;;;;;;;;;;;21.56;57.04;101357.34;4843971;29;6801;-71
2023/06/24 02:08:23;;;;;;;;;;;;;;;21.56;56.94;101352.13;4849246;29;6808;-71
2023/06/24 02:10:51;;;;;;;;;;;;;;;21.56;57.30;101355.59;4836321;29;6793;-71
2023/06/24 02:13:19;;;;;;;;;;;;;;;21.56;57.34;101354.75;4838785;29;7024;-70
2023/06/24 02:15:49;;;;;;;;;;;;;;;21.55;57.11;101353.00;4836569;29;6961;-74
2023/06/24 02:18:17;;;;;;;;;;;;;;;21.51;57.62;101347.69;4841813;29;6820;-72
2023/06/24 02:20:45;;;;;;;;;;;;;;;21.50;57.49;101359.00;4842812;29;6797;-72
2023/06/24 02:23:13;;;;;;;;;;;;;;;21.46;57.42;101357.19;4841292;29;6889;-71
2023/06/24 02:25:41;;;;;;;;;;;;;;;21.44;57.45;101366.72;4843949;29;6796;-72
2023/06/24 02:28:08;;;;;;;;;;;;;;;21.43;57.55;101364.06;4841467;29;7047;-71
2023/06/24 02:30:39;;;;;;;;;;;;;;;21.42;57.67;101365.78;4818010;29;7446;-76
2023/06/24 02:33:06;;;;;;;;;;;;;;;21.41;57.62;101368.38;4860674;29;6969;-76
2023/06/24 02:35:32;;;;;;;;;;;;;;;21.39;57.69;101364.84;4845158;29;6851;-76
2023/06/24 02:37:57;;;;;;;;;;;;;;;21.37;58.10;101357.88;4844864;29;6904;-76
2023/06/24 02:40:23;;;;;;;;;;;;;;;21.37;57.44;101364.84;4843332;29;6856;-75
2023/06/24 02:42:49;;;;;;;;;;;;;;;21.35;58.02;101364.81;4844444;29;6789;-74
2023/06/24 02:45:16;;;;;;;;;;;;;;;21.35;57.75;101369.16;4847465;29;6788;-76
2023/06/24 02:47:45;;;;;;;;;;;;;;;21.34;57.75;101367.38;4846154;29;7400;-75
2023/06/24 02:50:14;;;;;;;;;;;;;;;21.33;57.93;101373.44;4843345;29;7422;-73
2023/06/24 02:52:40;;;;;;;;;;;;;;;21.31;58.14;101373.44;4844285;29;6804;-75
2023/06/24 02:55:07;;;;;;;;;;;;;;;21.32;57.98;101369.97;4841809;29;7198;-75
2023/06/24 02:57:39;;;;;;;;;;;;;;;21.32;58.14;101363.88;4835541;29;6987;-76
2023/06/24 03:00:09;;;;;;;;;;;;;;;21.35;58.50;101363.94;4858135;29;6960;-71
2023/06/24 03:02:36;;;;;;;;;;;;;;;21.36;58.14;101360.47;4836861;29;12339;-73
2023/06/24 03:05:03;;;;;;;;;;;;;;;21.39;58.21;101372.66;4842678;29;7164;-71
2023/06/24 03:07:30;;;;;;;;;;;;;;;21.38;58.32;101366.59;4841617;29;6813;-72
2023/06/24 03:09:57;;;;;;;;;;;;;;;21.40;58.13;101372.72;4830672;29;9562;-72
2023/06/24 03:12:23;;;;;;;;;;;;;;;21.41;58.52;101374.47;4842737;29;6789;-72
2023/06/24 03:14:49;;;;;;;;;;;;;;;21.42;58.44;101372.75;4827036;29;7319;-71
2023/06/24 03:17:14;;;;;;;;;;;;;;;21.42;58.30;101376.22;4843592;29;6781;-73
2023/06/24 03:19:42;;;;;;;;;;;;;;;21.45;58.46;101378.00;4839343;29;7288;-74
2023/06/24 03:22:07;;;;;;;;;;;;;;;21.45;58.64;101389.34;4841065;29;6987;-73
2023/06/24 03:24:33;;;;;;;;;;;;;;;21.45;58.24;101389.34;4841998;29;6769;-71
2023/06/24 03:26:59;;;;;;;;;;;;;;;21.46;58.31;101387.59;4843054;29;7196;-72
2023/06/24 03:29:24;;;;;;;;;;;;;;;21.46;58.43;101385.88;4844742;29;6837;-71
2023/06/24 03:31:50;;;;;;;;;;;;;;;21.47;58.31;101390.25;4826085;29;7168;-73
2023/06/24 03:34:16;;;;;;;;;;;;;;;21.48;58.39;101391.09;4839098;29;7249;-71
2023/06/24 03:36:42;;;;;;;;;;;;;;;21.50;58.39;101394.63;4837335;29;6820;-71
2023/06/24 03:39:08;;;;;;;;;;;;;;;21.49;58.77;101398.97;4840270;29;6982;-72
2023/06/24 03:41:34;;;;;;;;;;;;;;;21.50;58.54;101392.88;4857700;29;6997;-70
2023/06/24 03:44:00;;;;;;;;;;;;;;;21.51;58.38;101391.19;4854971;29;6932;-72
2023/06/24 03:46:26;;;;;;;;;;;;;;;21.52;58.50;101398.16;4856824;29;7334;-74
2023/06/24 03:48:52;;;;;;;;;;;;;;;21.53;58.21;101404.22;4837407;29;6796;-71
2023/06/24 03:51:17;;;;;;;;;;;;;;;21.53;58.42;101404.22;4843943;29;6780;-73
2023/06/24 03:53:43;;;;;;;;;;;;;;;21.54;58.51;101408.63;4841011;29;6780;-73
2023/06/24 03:56:09;;;;;;;;;;;;;;;21.55;58.92;101412.97;4839627;29;6784;-74
2023/06/24 03:58:34;;;;;;;;;;;;;;;21.56;58.17;101413.00;4856838;29;7231;-72
2023/06/24 04:01:02;;;;;;;;;;;;;;;21.59;58.64;101417.38;4824869;29;6957;-73
2023/06/24 04:03:28;;;;;;;;;;;;;;;21.61;58.80;101413.06;4835753;29;8738;-71
2023/06/24 04:05:55;;;;;;;;;;;;;;;21.65;58.55;101418.38;4836747;29;7366;-72
2023/06/24 04:08:22;;;;;;;;;;;;;;;21.68;58.66;101420.19;4839826;29;6813;-71
2023/06/24 04:10:48;;;;;;;;;;;;;;;21.72;58.63;101416.78;4837745;29;6807;-72
2023/06/24 04:13:13;;;;;;;;;;;;;;;21.74;58.63;101420.31;4850760;29;6849;-74
2023/06/24 04:15:39;;;;;;;;;;;;;;;21.79;58.73;101420.41;4828538;29;6789;-71
2023/06/24 04:18:04;;;;;;;;;;;;;;;21.90;59.16;101428.41;4837038;29;6828;-70
2023/06/24 04:20:30;;;;;;;;;;;;;;;22.05;59.55;101425.16;4838191;29;7147;-73
2023/06/24 04:22:57;;;;;;;;;;;;;;;22.23;59.39;101418.50;4853065;29;6844;-71
2023/06/24 04:25:23;;;;;;;;;;;;;;;22.40;59.57;101416.16;4840078;29;6796;-71
2023/06/24 04:27:48;;;;;;;;;;;;;;;22.60;59.58;101422.59;4838366;29;6764;-73
2023/06/24 04:30:14;;;;;;;;;;;;;;;22.81;59.38;101418.53;4837947;29;6772;-70
2023/06/24 04:32:40;;;;;;;;;;;;;;;23.05;59.05;101422.28;4839489;29;6772;-72
2023/06/24 04:35:06;;;;;;;;;;;;;;;23.28;58.21;101419.13;4838372;29;7003;-71
2023/06/24 04:37:32;;;;;;;;;;;;;;;23.51;58.36;101426.34;4838576;29;6812;-71
2023/06/24 04:39:58;;;;;;;;;;;;;;;23.75;57.62;101427.44;4853645;29;6822;-74
2023/06/24 04:42:24;;;;;;;;;;;;;;;23.99;57.66;101429.41;4836534;29;6796;-71
2023/06/24 04:44:50;;;;;;;;;;;;;;;24.24;57.03;101427.03;4849013;29;6785;-72
2023/06/24 04:47:19;;;;;;;;;;;;;;;24.45;56.34;101428.94;4836335;29;6933;-71
2023/06/24 04:49:45;;;;;;;;;;;;;;;24.66;55.85;101427.28;4850546;29;7170;-70
2023/06/24 04:52:12;;;;;;;;;;;;;;;24.87;55.94;101425.69;4851632;29;6927;-71
2023/06/24 04:54:37;;;;;;;;;;;;;;;25.06;55.58;101427.50;4837967;29;6836;-71
2023/06/24 04:57:22;;;;;;;;;;;;;;;25.25;54.39;101419.72;4840932;29;6784;-71
2023/06/24 04:59:48;;;;;;;;;;;;;;;25.43;54.13;101410.16;4827957;29;7185;-72
2023/06/24 05:02:13;;;;;;;;;;;;;;;25.60;53.65;101416.34;4842509;29;7056;-73
2023/06/24 05:04:39;;;;;;;;;;;;;;;25.75;53.06;101414.59;4838818;29;6785;-71
2023/06/24 05:07:04;;;;;;;;;;;;;;;25.91;52.52;101416.34;4820871;29;7290;-71
2023/06/24 05:09:30;;;;;;;;;;;;;;;26.07;51.91;101413.72;4836784;29;6971;-72
2023/06/24 05:11:56;;;;;;;;;;;;;;;26.19;51.63;101413.75;4816016;29;6974;-72
2023/06/24 05:14:21;;;;;;;;;;;;;;;26.32;52.12;101411.09;4837981;29;6773;-71
2023/06/24 05:16:47;;;;;;;;;;;;;;;26.50;51.96;101410.19;4837649;29;6980;-72
2023/06/24 05:19:12;;;;;;;;;;;;;;;26.68;51.62;101401.38;4836190;29;6769;-73
2023/06/24 05:21:38;;;;;;;;;;;;;;;26.86;51.61;101399.56;4847841;29;7094;-72
2023/06/24 05:24:04;;;;;;;;;;;;;;;27.05;51.28;101399.50;4841778;29;6785;-71
2023/06/24 05:26:30;;;;;;;;;;;;;;;27.27;51.80;101398.50;4835297;29;7514;-72
2023/06/24 05:28:55;;;;;;;;;;;;;;;27.53;51.64;101409.75;4836064;29;7244;-74
2023/06/24 05:31:21;;;;;;;;;;;;;;;27.79;50.33;101406.94;4839531;29;6821;-70
2023/06/24 05:33:47;;;;;;;;;;;;;;;28.05;51.01;101408.50;4824282;29;8512;-74
2023/06/24 05:36:12;;;;;;;;;;;;;;;28.33;49.62;101405.63;4851266;29;6780;-73
2023/06/24 05:38:38;;;;;;;;;;;;;;;28.53;48.54;101404.53;4835021;29;6764;-73
2023/06/24 05:41:04;;;;;;;;;;;;;;;28.67;47.41;101407.88;4824244;29;6968;-73
2023/06/24 05:43:29;;;;;;;;;;;;;;;28.67;46.37;101407.88;4840723;29;6772;-73
2023/06/24 05:45:55;;;;;;;;;;;;;;;28.62;46.06;101412.34;4835874;29;6772;-71
2023/06/24 05:48:20;;;;;;;;;;;;;;;28.57;46.00;101415.91;4839041;29;7255;-72
2023/06/24 05:50:46;;;;;;;;;;;;;;;28.53;45.60;101408.03;4837487;29;6860;-71
2023/06/24 05:53:12;;;;;;;;;;;;;;;28.50;45.11;101409.84;4832548;29;6796;-73
2023/06/24 05:55:37;;;;;;;;;;;;;;;28.44;44.76;101404.63;4829781;29;7194;-71
2023/06/24 05:58:03;;;;;;;;;;;;;;;28.36;44.80;101420.53;4835928;29;6999;-71
2023/06/24 06:00:28;;;;;;;;;;;;;;;28.27;44.80;101417.09;4840785;29;6780;-71
2023/06/24 06:02:54;;;;;;;;;;;;;;;28.19;44.49;101410.13;4836925;29;6904;-72
2023/06/24 06:05:20;;;;;;;;;;;;;;;28.08;44.20;101408.44;4821854;29;6984;-72
2023/06/24 06:07:45;;;;;;;;;;;;;;;27.90;44.12;101413.88;4827062;29;6944;-71
2023/06/24 06:10:11;;;;;;;;;;;;;;;27.68;43.95;101416.69;4837652;29;6859;-71
2023/06/24 06:12:36;;;;;;;;;;;;;;;27.44;43.75;101424.72;4835111;29;6793;-73
2023/06/24 06:15:02;;;;;;;;;;;;;;;27.26;44.56;101419.56;4841144;29;6777;-71
2023/06/24 06:17:28;;;;;;;;;;;;;;;27.12;44.81;101417.00;4834150;29;7008;-71
2023/06/24 06:19:53;;;;;;;;;;;;;;;27.00;45.12;101413.53;4839337;29;6901;-72
2023/06/24 06:22:19;;;;;;;;;;;;;;;26.89;45.17;101416.22;4838795;29;6761;-73
2023/06/24 06:24:45;;;;;;;;;;;;;;;26.80;44.97;101420.63;4840024;29;6772;-74
2023/06/24 06:27:13;;;;;;;;;;;;;;;26.68;45.48;101424.16;4834873;29;8111;-73
2023/06/24 06:29:39;;;;;;;;;;;;;;;26.59;45.51;101423.28;4831812;29;6813;-73
2023/06/24 06:32:05;;;;;;;;;;;;;;;26.53;45.76;101433.84;4833707;29;7186;-73
2023/06/24 06:34:31;;;;;;;;;;;;;;;26.44;45.63;101429.47;4838308;29;7874;-72
2023/06/24 06:36:57;;;;;;;;;;;;;;;26.38;45.58;101429.50;4818092;29;7255;-71
2023/06/24 06:39:22;;;;;;;;;;;;;;;26.29;45.49;101430.38;4848748;29;7228;-72
2023/06/24 06:41:48;;;;;;;;;;;;;;;26.26;45.60;101437.38;4837138;29;6781;-72
2023/06/24 06:44:13;;;;;;;;;;;;;;;26.23;46.58;101433.03;4849033;29;7206;-72
2023/06/24 06:46:39;;;;;;;;;;;;;;;26.25;46.09;101431.25;4833776;29;6800;-72
2023/06/24 06:49:05;;;;;;;;;;;;;;;26.26;45.92;101440.00;4832511;29;7239;-72
2023/06/24 06:51:30;;;;;;;;;;;;;;;26.27;45.99;101439.13;4834082;29;6776;-73
2023/06/24 06:53:56;;;;;;;;;;;;;;;26.30;46.06;101442.63;4831686;29;6784;-73
2023/06/24 06:56:25;;;;;;;;;;;;;;;26.43;45.96;101442.63;4834767;29;6920;-72
2023/06/24 06:58:52;;;;;;;;;;;;;;;26.65;46.54;101439.94;4835238;29;8037;-72
2023/06/24 07:01:18;;;;;;;;;;;;;;;26.99;46.71;101448.63;4847064;29;6989;-74
2023/06/24 07:03:44;;;;;;;;;;;;;;;27.41;46.67;101439.66;4835541;29;6934;-72
2023/06/24 07:06:10;;;;;;;;;;;;;;;27.89;46.08;101446.38;4821000;29;6964;-73
2023/06/24 07:08:36;;;;;;;;;;;;;;;28.30;44.28;101439.94;4845959;29;6781;-72
2023/06/24 07:11:03;;;;;;;;;;;;;;;28.66;44.18;101436.91;4838786;29;6859;-72
2023/06/24 07:13:28;;;;;;;;;;;;;;;28.98;43.53;101440.09;4842552;29;7200;-73
2023/06/24 07:15:54;;;;;;;;;;;;;;;29.32;43.62;101450.19;4842329;29;7159;-72
2023/06/24 07:18:20;;;;;;;;;;;;;;;29.73;42.65;101435.50;4828938;29;7054;-72
2023/06/24 07:20:45;;;;;;;;;;;;;;;30.06;41.31;101437.66;4842792;29;6860;-72
2023/06/24 07:23:11;;;;;;;;;;;;;;;30.35;41.12;101429.22;4843845;29;6979;-72
2023/06/24 07:25:37;;;;;;;;;;;;;;;30.72;41.38;101432.06;4825529;29;7205;-72
2023/06/24 07:28:03;;;;;;;;;;;;;;;31.15;40.58;101438.22;4857294;29;6780;-73
2023/06/24 07:30:29;;;;;;;;;;;;;;;31.62;39.39;101434.53;4841100;29;7423;-74
2023/06/24 07:32:55;;;;;;;;;;;;;;;31.94;38.63;101436.41;4825716;29;6964;-73
2023/06/24 07:35:20;;;;;;;;;;;;;;;32.22;37.72;101432.19;4844648;29;6792;-73
2023/06/24 07:37:46;;;;;;;;;;;;;;;32.44;36.90;101429.81;4843993;29;7225;-73
2023/06/24 07:40:12;;;;;;;;;;;;;;;32.71;36.54;101432.63;4845902;29;6777;-73
2023/06/24 07:42:37;;;;;;;;;;;;;;;32.97;36.00;101433.66;4844557;29;7359;-74
2023/06/24 07:45:03;;;;;;;;;;;;;;;33.08;34.84;101431.56;4824437;29;7092;-74
2023/06/24 07:47:29;;;;;;;;;;;;;;;33.06;34.53;101440.47;4845595;29;6845;-73
2023/06/24 07:49:55;;;;;;;;;;;;;;;33.13;35.00;101436.72;4843086;29;7248;-73
2023/06/24 07:52:20;;;;;;;;;;;;;;;33.29;34.89;101445.06;4859802;29;7155;-74
2023/06/24 07:54:46;;;;;;;;;;;;;;;33.48;34.13;101439.22;4829460;29;6945;-73
2023/06/24 07:57:12;;;;;;;;;;;;;;;33.52;33.03;101443.53;4855996;29;6967;-73
2023/06/24 07:59:37;;;;;;;;;;;;;;;33.49;33.57;101432.97;4841652;29;7120;-73
2023/06/24 08:02:03;;;;;;;;;;;;;;;33.49;32.85;101430.31;4845253;29;6788;-73
2023/06/24 08:04:28;;;;;;;;;;;;;;;33.41;33.00;101437.63;4845140;29;6863;-73
2023/06/24 08:06:54;;;;;;;;;;;;;;;33.38;32.93;101428.84;4844788;29;6785;-73
2023/06/24 08:09:20;;;;;;;;;;;;;;;33.44;33.48;101419.81;4844157;29;7516;-72
2023/06/24 08:11:45;;;;;;;;;;;;;;;33.53;32.65;101421.34;4843256;29;6984;-72
2023/06/24 08:14:11;;;;;;;;;;;;;;;33.63;32.61;101420.13;4856280;29;7091;-73
2023/06/24 08:16:37;;;;;;;;;;;;;;;33.67;32.38;101426.22;4844295;29;7189;-72
2023/06/24 08:19:03;;;;;;;;;;;;;;;33.80;33.26;101423.97;4843891;29;6769;-73
2023/06/24 08:21:29;;;;;;;;;;;;;;;34.11;33.08;101428.28;4844894;29;6772;-72
2023/06/24 08:23:55;;;;;;;;;;;;;;;34.53;33.22;101423.31;4843985;29;6789;-73
2023/06/24 08:26:21;;;;;;;;;;;;;;;34.93;32.39;101427.09;4843869;29;7221;-74
2023/06/24 08:28:47;;;;;;;;;;;;;;;35.35;32.07;101424.63;4841767;29;6813;-72
2023/06/24 08:31:13;;;;;;;;;;;;;;;35.70;30.95;101425.00;4842963;29;6785;-73
2023/06/24 08:33:43;;;;;;;;;;;;;;;35.86;30.10;101428.75;4838555;29;6759;-74
2023/06/24 08:36:09;;;;;;;;;;;;;;;35.95;29.99;101426.63;4844709;29;7165;-73
2023/06/24 08:38:34;;;;;;;;;;;;;;;36.10;29.78;101420.63;4837951;29;6984;-73
2023/06/24 08:41:00;;;;;;;;;;;;;;;36.35;29.23;101424.88;4837854;29;7006;-73
2023/06/24 08:43:25;;;;;;;;;;;;;;;36.65;28.47;101420.91;4837339;29;6777;-74
2023/06/24 08:45:51;;;;;;;;;;;;;;;36.97;28.39;101429.22;4843397;29;6935;-73
2023/06/24 08:48:20;;;;;;;;;;;;;;;37.27;26.81;101420.69;4844124;29;6844;-72
2023/06/24 08:50:54;;;;;;;;;;;;;;;37.57;26.64;101416.56;4857023;29;6789;-71
2023/06/24 08:53:20;;;;;;;;;;;;;;;37.96;26.80;101414.59;4838768;29;6804;-71
2023/06/24 08:55:46;;;;;;;;;;;;;;;38.33;25.99;101418.88;4819120;29;7173;-70
2023/06/24 08:58:13;;;;;;;;;;;;;;;38.74;25.48;101416.75;4843079;29;6773;-71
2023/06/24 09:00:39;;;;;;;;;;;;;;;39.06;24.73;101413.22;4825949;29;7004;-70
2023/06/24 09:03:04;;;;;;;;;;;;;;;39.35;24.40;101413.34;4857361;29;6876;-71
2023/06/24 09:05:30;;;;;;;;;;;;;;;39.45;23.69;101409.19;4840276;29;6869;-71
2023/06/24 09:07:56;;;;;;;;;;;;;;;39.40;23.93;101412.13;4843866;29;7077;-70
2023/06/24 09:10:32;;;;;;;;;;;;;;;39.44;23.66;101416.41;4841784;29;7120;-72
2023/06/24 09:13:02;;;;;;;;;;;;;;;39.53;23.18;101408.75;4840453;29;7048;-72
2023/06/24 09:15:36;;;;;;;;;;;;;;;39.72;23.47;101408.50;4839347;29;6789;-73
2023/06/24 09:18:03;;;;;;;;;;;;;;;39.95;23.21;101401.78;4858596;29;7016;-71
2023/06/24 09:20:31;;;;;;;;;;;;;;;40.08;22.71;101403.69;4845622;29;6793;-72
2023/06/24 09:23:02;;;;;;;;;;;;;;;39.99;22.16;101400.66;4842289;29;7232;-72
2023/06/24 09:25:29;;;;;;;;;;;;;;;39.91;22.53;101402.94;4844773;29;6843;-72
2023/06/24 09:27:58;;;;;;;;;;;;;;;39.87;21.96;101401.38;4858358;29;7187;-72
2023/06/24 09:30:24;;;;;;;;;;;;;;;39.70;22.02;101395.22;4838959;29;6860;-72
2023/06/24 09:32:55;;;;;;;;;;;;;;;39.61;22.74;101398.44;4843430;29;6864;-72
2023/06/24 09:35:25;;;;;;;;;;;;;;;39.82;22.60;101401.63;4824802;29;6998;-72
2023/06/24 09:38:00;;;;;;;;;;;;;;;40.19;22.17;101395.88;4849762;29;6800;-72
2023/06/24 09:40:26;;;;;;;;;;;;;;;40.51;22.35;101400.16;4842566;29;6945;-72
2023/06/24 09:42:54;;;;;;;;;;;;;;;40.80;21.88;101394.75;4857035;29;6769;-72
2023/06/24 09:45:26;;;;;;;;;;;;;;;40.99;21.22;101389.06;4840200;29;6973;-72
2023/06/24 09:47:53;;;;;;;;;;;;;;;41.02;20.44;101374.56;4827288;29;6973;-72
2023/06/24 09:50:19;;;;;;;;;;;;;;;40.77;20.16;101378.84;4841645;29;6853;-72
2023/06/24 09:52:47;;;;;;;;;;;;;;;40.36;20.17;101372.47;4840925;29;6797;-71
2023/06/24 09:55:16;;;;;;;;;;;;;;;40.01;20.50;101365.66;4840245;29;6793;-72
2023/06/24 09:57:47;;;;;;;;;;;;;;;39.85;21.31;101371.06;4842058;29;6888;-71
2023/06/24 10:00:16;;;;;;;;;;;;;;;39.89;20.94;101361.06;4837418;29;7278;-71
2023/06/24 10:02:43;;;;;;;;;;;;;;;39.93;19.98;101362.56;4845607;29;7230;-72
2023/06/24 10:05:09;;;;;;;;;;;;;;;39.87;20.62;101363.81;4841521;29;6785;-72
2023/06/24 10:07:38;;;;;;;;;;;;;;;40.03;20.52;101361.03;4843125;29;6781;-72
2023/06/24 10:10:05;;;;;;;;;;;;;;;40.33;20.47;101359.25;4842939;29;6809;-72
2023/06/24 10:12:31;;;;;;;;;;;;;;;40.60;19.74;101361.13;4839935;29;6793;-72
2023/06/24 10:14:59;;;;;;;;;;;;;;;40.84;19.98;101358.69;4840289;29;9315;-72
2023/06/24 10:17:25;;;;;;;;;;;;;;;41.17;19.68;101351.16;4838938;29;6789;-72
2023/06/24 10:19:55;;;;;;;;;;;;;;;41.31;18.70;101347.56;4835825;29;7092;-72
2023/06/24 10:22:25;;;;;;;;;;;;;;;41.26;18.61;101347.00;4855515;29;7183;-71
2023/06/24 10:24:52;;;;;;;;;;;;;;;41.13;18.73;101352.31;4841573;29;6818;-72
2023/06/24 10:27:21;;;;;;;;;;;;;;;41.16;17.14;101354.81;4840791;29;6788;-72
2023/06/24 10:29:50;;;;;;;;;;;;;;;41.24;17.25;101349.81;4838807;29;7044;-72
2023/06/24 10:32:17;;;;;;;;;;;;;;;41.45;17.68;101341.25;4839631;29;6861;-72
2023/06/24 10:34:46;;;;;;;;;;;;;;;41.61;17.00;101341.88;4841336;29;6797;-72
2023/06/24 10:37:19;;;;;;;;;;;;;;;41.69;17.04;101329.75;4855989;29;6860;-71
2023/06/24 10:39:57;;;;;;;;;;;;;;;41.67;17.07;101340.63;4844179;29;7278;-71
2023/06/24 10:42:48;;;;;;;;;;;;;;;41.72;17.49;101333.09;4843165;29;7049;-71
2023/06/24 10:45:17;;;;;;;;;;;;;;;42.05;17.54;101328.13;4841982;29;6805;-72
2023/06/24 10:47:46;;;;;;;;;;;;;;;42.39;16.69;101324.84;4844441;29;6953;-72
2023/06/24 10:50:21;;;;;;;;;;;;;;;42.56;16.57;101321.78;4859409;29;6941;-72
2023/06/24 10:52:53;;;;;;;;;;;;;;;42.62;16.28;101315.09;4860016;29;7068;-72
2023/06/24 10:55:19;;;;;;;;;;;;;;;42.75;16.31;101321.25;4852363;29;6871;-71
2023/06/24 10:57:45;;;;;;;;;;;;;;;43.02;16.40;101322.88;4827628;29;7030;-72
2023/06/24 11:00:13;;;;;;;;;;;;;;;43.27;15.71;101304.81;4843254;29;6797;-72
2023/06/24 11:02:38;;;;;;;;;;;;;;;43.42;15.45;101308.19;4828202;29;7028;-72
2023/06/24 11:05:05;;;;;;;;;;;;;;;43.46;15.24;101303.38;4846482;29;6980;-73
2023/06/24 11:07:38;;;;;;;;;;;;;;;43.48;15.27;101304.16;4845307;29;7247;-71
2023/06/24 11:10:11;;;;;;;;;;;;;;;43.56;14.82;101304.41;4842748;29;6800;-72
2023/06/24 11:12:39;;;;;;;;;;;;;;;43.76;15.12;101295.72;4839464;29;7065;-72
2023/06/24 11:15:11;;;;;;;;;;;;;;;43.97;14.90;101293.13;4841571;29;6868;-72
2023/06/24 11:17:38;;;;;;;;;;;;;;;44.15;14.70;101296.16;4843549;29;6812;-72
2023/06/24 11:20:10;;;;;;;;;;;;;;;44.29;14.72;101295.06;4845907;29;6856;-72
2023/06/24 11:22:37;;;;;;;;;;;;;;;44.11;14.11;101292.00;4847836;29;6864;-71
2023/06/24 11:25:03;;;;;;;;;;;;;;;43.84;13.99;101290.56;4835802;29;6982;-72
2023/06/24 11:27:30;;;;;;;;;;;;;;;43.77;13.88;101290.22;4844739;29;7112;-73
2023/06/24 11:30:01;;;;;;;;;;;;;;;43.81;14.04;101297.06;4861772;29;7334;-72
2023/06/24 11:32:41;;;;;;;;;;;;;;;43.99;14.22;101291.16;4839649;29;7356;-72
2023/06/24 11:35:14;;;;;;;;;;;;;;;44.15;13.84;101292.63;4860958;29;7687;-72
2023/06/24 11:37:46;;;;;;;;;;;;;;;44.16;13.93;101283.53;4843570;29;7199;-72
2023/06/24 11:40:16;;;;;;;;;;;;;;;44.20;13.83;101285.88;4844168;29;6801;-72
2023/06/24 11:42:47;;;;;;;;;;;;;;;44.38;13.59;101288.91;4843801;29;7035;-72
2023/06/24 11:45:16;;;;;;;;;;;;;;;44.50;13.25;101280.75;4846071;29;6809;-73
2023/06/24 11:47:43;;;;;;;;;;;;;;;44.58;13.52;101280.16;4845705;29;6981;-72
2023/06/24 11:50:09;;;;;;;;;;;;;;;44.75;13.33;101284.97;4842352;29;6801;-72
2023/06/24 11:52:48;;;;;;;;;;;;;;;44.82;12.85;101277.22;4833557;29;6812;-73
2023/06/24 11:55:23;;;;;;;;;;;;;;;44.88;13.07;101273.97;4857708;29;8074;-72
2023/06/24 11:58:06;;;;;;;;;;;;;;;44.99;12.82;101270.41;4844170;29;6972;-72
2023/06/24 12:00:36;;;;;;;;;;;;;;;45.12;12.99;101270.19;4856903;29;7864;-72
2023/06/24 12:03:05;;;;;;;;;;;;;;;45.26;13.15;101266.28;4843445;29;6781;-72
2023/06/24 12:05:36;;;;;;;;;;;;;;;45.21;13.07;101266.69;4842421;29;6792;-72
2023/06/24 12:08:09;;;;;;;;;;;;;;;45.16;12.39;101266.22;4855541;29;7064;-72
2023/06/24 12:10:37;;;;;;;;;;;;;;;44.98;12.57;101257.88;4841876;29;6966;-72
2023/06/24 12:13:08;;;;;;;;;;;;;;;44.88;12.62;101254.22;4842346;29;7022;-72
2023/06/24 12:15:34;;;;;;;;;;;;;;;44.80;12.48;101252.16;4838731;29;6817;-72
2023/06/24 12:18:01;;;;;;;;;;;;;;;44.69;12.74;101261.19;4844535;29;6801;-72
2023/06/24 12:20:29;;;;;;;;;;;;;;;44.63;12.67;101261.69;4842799;29;6933;-71
2023/06/24 12:22:55;;;;;;;;;;;;;;;44.34;11.93;101254.16;4844647;29;6805;-72
2023/06/24 12:25:21;;;;;;;;;;;;;;;44.03;12.08;101265.63;4840350;29;6785;-72
2023/06/24 12:27:46;;;;;;;;;;;;;;;43.70;12.67;101254.75;4841212;29;7198;-71
2023/06/24 12:30:13;;;;;;;;;;;;;;;43.64;12.90;101262.44;4842227;29;7113;-72
2023/06/24 12:32:39;;;;;;;;;;;;;;;43.64;12.94;101257.03;4844217;29;7894;-72
2023/06/24 12:35:08;;;;;;;;;;;;;;;43.71;13.03;101247.47;4846122;29;7217;-72
2023/06/24 12:37:35;;;;;;;;;;;;;;;43.78;13.31;101254.13;4842236;29;6816;-72
2023/06/24 12:40:01;;;;;;;;;;;;;;;43.91;13.07;101253.13;4849292;29;7274;-72
2023/06/24 12:42:28;;;;;;;;;;;;;;;43.93;13.06;101243.06;4839697;29;7495;-72
2023/06/24 12:44:54;;;;;;;;;;;;;;;44.02;13.09;101245.00;4840842;29;6800;-72
2023/06/24 12:47:21;;;;;;;;;;;;;;;44.07;12.77;101241.94;4841882;29;6792;-72
2023/06/24 12:49:46;;;;;;;;;;;;;;;43.89;13.16;101244.31;4845423;29;6824;-72
2023/06/24 12:52:13;;;;;;;;;;;;;;;43.82;13.08;101243.97;4841451;29;6780;-72
2023/06/24 12:54:39;;;;;;;;;;;;;;;43.84;13.56;101232.03;4857929;29;6792;-72